Time;durP1;ratioP1;P1;durP2;ratioP2;P2;SDS_P1;SDS_P2;PMS_P1;PMS_P2;Temp;Humidity;BMP_temperature;BMP_pressure;BME280_temperature;BME280_humidity;BME280_pressure;Samples;Min_cycle;Max_cycle;Signal;HPM_P1;HPM_P2
2021/10/21 00:00:47;;;;;;;5.47;2.40;;;;;;;13.26;87.70;96172.94;4985236;28;20088;-76
2021/10/21 00:03:12;;;;;;;5.30;2.53;;;;;;;13.29;87.50;96171.53;4998272;28;20030;-75
2021/10/21 00:05:38;;;;;;;6.97;3.20;;;;;;;13.32;87.90;96160.09;4984152;28;20048;-75
2021/10/21 00:08:03;;;;;;;6.63;2.53;;;;;;;13.26;87.86;96156.66;4984663;28;20037;-75
2021/10/21 00:10:29;;;;;;;7.47;2.70;;;;;;;13.21;88.54;96154.03;4984073;28;20409;-75
2021/10/21 00:12:54;;;;;;;5.35;2.70;;;;;;;13.23;88.29;96149.09;4984095;28;20029;-76
2021/10/21 00:15:19;;;;;;;5.65;2.53;;;;;;;13.22;88.63;96143.94;4966742;28;20244;-76
2021/10/21 00:17:45;;;;;;;5.90;3.30;;;;;;;13.22;88.24;96138.50;4983358;28;20036;-75
2021/10/21 00:20:11;;;;;;;7.72;3.95;;;;;;;13.24;88.32;96136.31;4985596;28;20045;-75
2021/10/21 00:22:37;;;;;;;6.47;4.00;;;;;;;13.22;88.52;96128.44;4983604;28;20038;-76
2021/10/21 00:25:03;;;;;;;6.75;4.32;;;;;;;13.23;88.37;96121.91;4971094;28;20608;-77
2021/10/21 00:27:28;;;;;;;7.72;4.55;;;;;;;13.25;88.93;96127.03;4967958;28;20057;-76
2021/10/21 00:29:54;;;;;;;9.30;5.68;;;;;;;13.25;88.62;96113.44;4984893;28;20368;-76
2021/10/21 00:32:19;;;;;;;10.68;5.40;;;;;;;13.24;88.74;96117.28;4983260;28;20068;-76
2021/10/21 00:34:44;;;;;;;7.38;3.65;;;;;;;13.13;88.68;96108.50;4968181;28;20038;-75
2021/10/21 00:37:10;;;;;;;6.60;3.85;;;;;;;13.09;89.17;96088.47;4967604;28;20080;-76
2021/10/21 00:39:35;;;;;;;10.23;6.32;;;;;;;13.08;89.22;96076.78;4983806;28;20421;-76
2021/10/21 00:42:01;;;;;;;10.98;5.95;;;;;;;13.11;89.24;96073.47;4982844;28;20034;-75
2021/10/21 00:44:26;;;;;;;8.32;5.78;;;;;;;13.12;89.55;96075.09;4983062;28;20630;-75
2021/10/21 00:46:52;;;;;;;9.65;5.93;;;;;;;13.13;88.50;96070.47;4983847;28;20027;-76
2021/10/21 00:49:17;;;;;;;9.30;6.30;;;;;;;13.16;88.81;96066.34;4984122;28;20081;-76
2021/10/21 00:51:43;;;;;;;9.38;6.45;;;;;;;13.14;88.70;96061.19;4988641;28;20030;-76
2021/10/21 00:54:09;;;;;;;9.93;6.25;;;;;;;13.16;88.70;96041.88;4983327;28;20670;-75
2021/10/21 00:56:35;;;;;;;10.90;6.50;;;;;;;13.16;88.74;96034.50;4967700;28;20161;-77
2021/10/21 00:59:01;;;;;;;9.02;5.97;;;;;;;13.14;88.76;96020.44;4987937;28;20030;-76
2021/10/21 01:01:29;;;;;;;9.02;5.82;;;;;;;13.15;88.29;96008.44;4982196;28;20026;-76
2021/10/21 01:03:54;;;;;;;10.10;6.88;;;;;;;13.17;88.44;96006.25;4989072;28;20026;-77
2021/10/21 01:06:20;;;;;;;9.45;5.80;;;;;;;13.10;87.72;96003.13;4988755;28;20373;-76
2021/10/21 01:08:46;;;;;;;8.70;5.70;;;;;;;13.12;87.67;95996.28;5004140;28;20045;-76
2021/10/21 01:11:15;;;;;;;9.38;5.85;;;;;;;13.11;87.95;95991.97;4986841;28;20455;-76
2021/10/21 01:13:40;;;;;;;8.52;6.30;;;;;;;13.13;87.68;95984.28;4987278;28;20035;-76
2021/10/21 01:16:11;;;;;;;10.25;6.30;;;;;;;13.10;88.65;95973.22;4987368;28;20503;-76
2021/10/21 01:18:37;;;;;;;11.13;5.50;;;;;;;13.12;87.79;95971.81;4986777;28;20030;-76
2021/10/21 01:21:03;;;;;;;9.30;6.00;;;;;;;13.13;88.25;95984.28;4988135;28;20030;-76
2021/10/21 01:23:29;;;;;;;10.25;5.50;;;;;;;13.19;88.34;95987.72;4982693;28;20046;-76
2021/10/21 01:25:54;;;;;;;8.52;5.57;;;;;;;13.13;88.10;95978.84;4981452;28;20555;-76
2021/10/21 01:28:20;;;;;;;9.00;5.18;;;;;;;13.17;88.78;95975.53;4989720;28;20038;-76
2021/10/21 01:30:45;;;;;;;8.20;5.10;;;;;;;13.33;87.90;95963.25;4987251;28;20280;-76
2021/10/21 01:33:11;;;;;;;6.78;4.13;;;;;;;13.32;88.29;95947.22;4987767;28;20173;-76
2021/10/21 01:35:37;;;;;;;8.40;4.97;;;;;;;13.34;87.91;95920.56;4986337;28;20484;-76
2021/10/21 01:38:03;;;;;;;8.05;4.70;;;;;;;13.29;88.63;95902.44;4981282;28;20030;-76
2021/10/21 01:40:28;;;;;;;7.07;4.40;;;;;;;13.35;88.45;95897.69;4985175;28;20033;-75
2021/10/21 01:42:53;;;;;;;9.80;4.97;;;;;;;13.41;87.72;95896.47;4988753;28;20041;-76
2021/10/21 01:45:24;;;;;;;7.07;4.05;;;;;;;13.43;87.48;95864.34;4985199;28;20434;-76
2021/10/21 01:47:50;;;;;;;7.75;4.13;;;;;;;13.43;87.11;95855.38;4988449;28;20034;-76
2021/10/21 01:50:16;;;;;;;7.15;3.40;;;;;;;13.46;87.27;95862.94;4985338;28;20563;-76
2021/10/21 01:52:41;;;;;;;4.70;2.58;;;;;;;13.51;86.71;95868.28;4976400;28;20125;-76
2021/10/21 01:55:08;;;;;;;6.18;3.55;;;;;;;13.55;85.54;95857.56;4964082;28;20541;-76
2021/10/21 01:57:33;;;;;;;4.70;2.45;;;;;;;13.61;85.44;95856.34;5003386;28;20037;-76
2021/10/21 01:59:58;;;;;;;4.22;2.47;;;;;;;13.62;85.31;95857.94;4986250;28;20027;-75
2021/10/21 02:02:24;;;;;;;4.65;2.10;;;;;;;13.70;84.40;95849.06;4991199;28;20045;-76
2021/10/21 02:04:49;;;;;;;3.50;2.10;;;;;;;13.65;84.78;95830.94;4969752;28;20034;-76
2021/10/21 02:07:15;;;;;;;2.92;1.23;;;;;;;13.78;83.16;95815.66;4985601;28;20142;-75
2021/10/21 02:09:40;;;;;;;4.75;2.05;;;;;;;13.70;84.38;95788.41;4970716;28;20018;-76
2021/10/21 02:12:05;;;;;;;5.00;1.95;;;;;;;13.58;84.90;95784.34;4985580;28;20116;-76
2021/10/21 02:14:31;;;;;;;2.97;1.77;;;;;;;13.69;84.13;95781.34;4984660;28;20061;-75
2021/10/21 02:16:57;;;;;;;4.90;1.92;;;;;;;13.68;84.50;95799.63;4985430;28;20499;-76
2021/10/21 02:19:22;;;;;;;4.30;1.88;;;;;;;13.77;83.80;95784.13;4987561;28;20029;-77
2021/10/21 02:21:48;;;;;;;3.90;1.58;;;;;;;13.76;83.73;95787.97;4985646;28;20042;-75
2021/10/21 02:24:13;;;;;;;2.05;1.20;;;;;;;13.83;83.40;95795.69;4986049;28;20539;-76
2021/10/21 02:26:39;;;;;;;2.83;1.42;;;;;;;13.97;82.52;95770.31;4986680;28;20030;-76
2021/10/21 02:29:04;;;;;;;2.60;1.27;;;;;;;13.96;82.17;95763.28;4987431;28;20583;-76
2021/10/21 02:31:29;;;;;;;2.15;1.15;;;;;;;13.99;81.92;95757.19;4985657;28;20027;-76
2021/10/21 02:33:55;;;;;;;3.30;1.50;;;;;;;14.11;81.37;95754.66;4985992;28;20044;-79
2021/10/21 02:36:20;;;;;;;2.33;1.30;;;;;;;14.08;81.41;95758.00;4986033;28;20049;-76
2021/10/21 02:38:45;;;;;;;3.22;1.70;;;;;;;14.36;79.46;95752.34;4986248;28;20131;-76
2021/10/21 02:41:11;;;;;;;2.17;1.20;;;;;;;14.47;78.31;95763.75;4986759;28;20033;-77
2021/10/21 02:43:37;;;;;;;1.80;1.02;;;;;;;14.34;79.12;95770.91;4983755;28;20026;-77
2021/10/21 02:46:03;;;;;;;3.17;1.40;;;;;;;14.35;79.10;95752.66;4973355;28;20039;-77
2021/10/21 02:48:29;;;;;;;2.67;1.38;;;;;;;14.47;78.16;95749.31;4969657;28;20077;-76
2021/10/21 02:50:54;;;;;;;2.53;1.25;;;;;;;14.61;77.46;95768.25;4986370;28;20518;-77
2021/10/21 02:53:19;;;;;;;2.90;1.35;;;;;;;14.44;78.05;95762.47;4986764;28;20057;-75
2021/10/21 02:55:45;;;;;;;2.78;1.67;;;;;;;14.40;78.96;95786.00;4986497;28;20163;-76
2021/10/21 02:58:10;;;;;;;3.90;1.23;;;;;;;14.37;78.82;95778.44;4985241;28;20125;-76
2021/10/21 03:00:35;;;;;;;3.05;1.48;;;;;;;14.30;79.35;95776.19;4986432;28;20492;-76
2021/10/21 03:03:01;;;;;;;2.33;1.20;;;;;;;14.27;79.08;95804.03;4984755;28;20026;-76
2021/10/21 03:05:26;;;;;;;4.55;1.42;;;;;;;14.25;79.13;95797.31;4969016;28;20037;-76
2021/10/21 03:07:52;;;;;;;3.58;1.40;;;;;;;14.21;78.94;95786.25;4985989;28;20214;-75
2021/10/21 03:10:17;;;;;;;2.88;1.02;;;;;;;14.02;80.88;95792.75;4984493;28;20060;-76
2021/10/21 03:12:42;;;;;;;3.25;1.58;;;;;;;13.93;81.93;95788.38;4985591;28;20447;-76
2021/10/21 03:15:08;;;;;;;2.70;1.60;;;;;;;13.86;82.16;95802.44;4985595;28;20257;-75
2021/10/21 03:17:33;;;;;;;3.15;1.20;;;;;;;13.76;82.63;95823.34;4984304;28;20038;-76
2021/10/21 03:19:59;;;;;;;4.25;1.67;;;;;;;13.69;83.92;95835.75;4985214;28;20050;-76
2021/10/21 03:22:24;;;;;;;4.30;1.65;;;;;;;13.56;84.47;95835.50;4984314;28;20480;-77
2021/10/21 03:24:51;;;;;;;3.35;1.25;;;;;;;13.51;84.75;95850.06;4991161;28;20033;-76
2021/10/21 03:27:16;;;;;;;2.20;1.30;;;;;;;13.42;85.75;95859.22;4987155;28;20030;-75
2021/10/21 03:29:42;;;;;;;3.25;1.52;;;;;;;13.44;84.76;95851.53;4984781;28;20033;-70
2021/10/21 03:32:07;;;;;;;3.65;1.73;;;;;;;13.43;84.86;95836.34;4984679;28;20403;-71
2021/10/21 03:34:33;;;;;;;3.55;1.65;;;;;;;13.40;85.45;95822.28;4986303;28;20080;-70
2021/10/21 03:36:58;;;;;;;4.00;1.90;;;;;;;13.42;84.56;95818.44;4986062;28;20036;-70
2021/10/21 03:39:23;;;;;;;2.97;1.13;;;;;;;13.61;80.90;95821.81;4984843;28;20106;-70
2021/10/21 03:41:49;;;;;;;1.25;0.70;;;;;;;13.84;77.80;95837.28;4985345;28;20499;-71
2021/10/21 03:44:14;;;;;;;1.50;0.77;;;;;;;13.75;76.39;95846.19;4986409;28;20515;-71
2021/10/21 03:46:40;;;;;;;1.83;0.60;;;;;;;13.67;74.05;95848.88;4983329;28;20042;-71
2021/10/21 03:49:06;;;;;;;1.98;0.60;;;;;;;13.60;69.56;95858.25;4985694;28;20098;-77
2021/10/21 03:51:31;;;;;;;1.88;0.60;;;;;;;13.31;68.79;95858.66;4964492;28;20039;-77
2021/10/21 03:53:56;;;;;;;0.85;0.25;;;;;;;13.23;67.30;95885.44;4979012;28;20039;-77
2021/10/21 03:56:22;;;;;;;2.58;0.43;;;;;;;13.14;68.77;95877.22;4974296;28;20213;-77
2021/10/21 03:58:47;;;;;;;1.95;0.63;;;;;;;13.08;65.04;95904.81;4977096;28;20050;-78
2021/10/21 04:01:12;;;;;;;0.60;0.22;;;;;;;13.19;63.70;95902.69;4985014;28;20026;-77
2021/10/21 04:03:38;;;;;;;2.92;0.50;;;;;;;13.24;62.07;95908.78;4986973;28;20503;-78
2021/10/21 04:06:03;;;;;;;0.93;0.50;;;;;;;12.90;63.35;95926.34;4985763;28;20492;-78
2021/10/21 04:08:28;;;;;;;2.65;0.50;;;;;;;12.90;64.43;95936.41;4984645;28;20030;-78
2021/10/21 04:10:54;;;;;;;1.98;0.40;;;;;;;12.83;63.19;95937.63;4984221;28;20038;-77
2021/10/21 04:13:21;;;;;;;0.82;0.30;;;;;;;12.70;63.64;95954.72;4983855;28;20022;-78
2021/10/21 04:15:47;;;;;;;2.78;0.40;;;;;;;12.67;62.85;95949.88;4984410;28;20117;-77
2021/10/21 04:18:12;;;;;;;0.57;0.38;;;;;;;12.57;62.41;95973.41;4984568;28;20509;-77
2021/10/21 04:20:37;;;;;;;0.65;0.35;;;;;;;12.63;61.26;95978.75;4982698;28;20034;-76
2021/10/21 04:23:03;;;;;;;1.08;0.30;;;;;;;12.67;61.60;95990.59;4980044;28;20483;-71
2021/10/21 04:25:28;;;;;;;1.45;0.43;;;;;;;12.53;61.61;95977.81;4981387;28;20526;-71
2021/10/21 04:27:54;;;;;;;0.93;0.38;;;;;;;12.41;61.40;95997.31;4984371;28;20275;-76
2021/10/21 04:30:20;;;;;;;1.27;0.50;;;;;;;12.41;60.91;95981.03;4967637;28;20189;-75
2021/10/21 04:32:45;;;;;;;1.83;0.30;;;;;;;12.29;61.42;96019.50;4968079;28;20451;-75
2021/10/21 04:35:10;;;;;;;3.42;0.60;;;;;;;12.29;60.33;96005.09;4983042;28;20030;-76
2021/10/21 04:37:36;;;;;;;1.92;0.50;;;;;;;12.14;62.50;96020.53;4984075;28;20444;-76
2021/10/21 04:40:04;;;;;;;3.65;0.40;;;;;;;12.13;60.70;96042.53;4982331;28;20137;-76
2021/10/21 04:42:29;;;;;;;3.05;0.63;;;;;;;12.04;62.47;96036.94;4982384;28;20077;-75
2021/10/21 04:44:55;;;;;;;2.28;0.30;;;;;;;12.00;61.71;96039.44;4982234;28;20022;-76
2021/10/21 04:47:20;;;;;;;4.93;1.08;;;;;;;11.93;63.51;96049.84;4978984;28;20038;-76
2021/10/21 04:49:45;;;;;;;2.05;0.60;;;;;;;11.88;63.33;96058.88;4963876;28;20085;-75
2021/10/21 04:52:11;;;;;;;2.38;0.60;;;;;;;11.78;64.11;96054.41;4979099;28;20034;-76
2021/10/21 04:54:38;;;;;;;3.88;0.50;;;;;;;11.74;63.91;96053.38;4967441;28;20037;-75
2021/10/21 04:57:03;;;;;;;2.47;0.57;;;;;;;12.07;61.81;96064.34;4983369;28;20061;-76
2021/10/21 04:59:28;;;;;;;1.05;0.43;;;;;;;11.90;63.47;96078.38;4983667;28;20108;-75
2021/10/21 05:01:54;;;;;;;2.17;0.60;;;;;;;11.97;61.66;96059.81;4983260;28;20408;-77
2021/10/21 05:04:19;;;;;;;7.00;2.25;;;;;;;12.01;60.93;96078.25;4982745;28;20492;-77
2021/10/21 05:06:45;;;;;;;3.65;0.90;;;;;;;12.09;59.42;96058.63;4983244;28;20615;-77
2021/10/21 05:09:10;;;;;;;2.47;0.20;;;;;;;11.96;59.94;96084.53;4982024;28;20571;-76
2021/10/21 05:11:35;;;;;;;1.10;0.35;;;;;;;12.02;58.60;96082.56;4985412;28;20049;-77
2021/10/21 05:14:01;;;;;;;2.95;0.65;;;;;;;11.86;60.07;96079.25;4980981;28;20041;-76
2021/10/21 05:16:26;;;;;;;5.20;0.80;;;;;;;11.68;61.33;96077.03;4981168;28;20038;-76
2021/10/21 05:18:51;;;;;;;2.75;0.90;;;;;;;11.70;60.85;96076.75;4981121;28;20041;-76
2021/10/21 05:21:17;;;;;;;4.20;0.50;;;;;;;11.71;60.93;96087.28;4980339;28;20034;-77
2021/10/21 05:23:42;;;;;;;2.72;0.52;;;;;;;11.79;60.09;96102.09;4983272;28;20042;-72
2021/10/21 05:26:08;;;;;;;4.40;0.80;;;;;;;11.76;61.71;96112.72;4985512;28;20058;-72
2021/10/21 05:28:33;;;;;;;2.83;0.43;;;;;;;11.67;61.59;96105.25;4982325;28;20026;-72
2021/10/21 05:30:58;;;;;;;3.78;0.93;;;;;;;11.79;60.46;96091.25;4983116;28;20022;-72
2021/10/21 05:33:25;;;;;;;5.72;0.95;;;;;;;11.83;60.72;96105.84;4982571;28;20072;-72
2021/10/21 05:35:50;;;;;;;7.05;0.70;;;;;;;11.74;60.41;96118.44;4982485;28;20034;-77
2021/10/21 05:38:16;;;;;;;2.72;0.63;;;;;;;11.70;60.23;96114.69;4984039;28;20159;-77
2021/10/21 05:40:41;;;;;;;1.20;0.40;;;;;;;11.86;59.16;96111.81;4964580;28;20026;-77
2021/10/21 05:43:07;;;;;;;13.18;1.10;;;;;;;11.84;58.66;96126.44;4984561;28;20034;-77
2021/10/21 05:45:32;;;;;;;4.70;0.75;;;;;;;11.89;57.83;96119.34;4986454;28;20739;-77
2021/10/21 05:47:57;;;;;;;4.95;1.15;;;;;;;11.89;57.94;96132.91;4984768;28;20484;-77
2021/10/21 05:50:23;;;;;;;2.22;0.73;;;;;;;11.85;57.82;96127.25;5000981;28;20502;-77
2021/10/21 05:52:49;;;;;;;3.67;0.88;;;;;;;11.80;58.28;96130.03;4984323;28;20100;-77
2021/10/21 05:55:14;;;;;;;3.90;0.88;;;;;;;11.84;58.09;96156.28;4987233;28;20033;-78
2021/10/21 05:57:40;;;;;;;6.10;1.08;;;;;;;11.79;59.15;96152.84;4969073;28;20026;-77
2021/10/21 06:00:08;;;;;;;6.90;0.82;;;;;;;11.84;57.37;96166.31;4984865;28;20022;-77
2021/10/21 06:02:33;;;;;;;2.55;0.60;;;;;;;11.89;57.70;96181.72;4984791;28;20038;-77
2021/10/21 06:04:59;;;;;;;3.40;0.55;;;;;;;11.89;57.05;96174.41;4996718;28;20038;-77
2021/10/21 06:07:24;;;;;;;4.38;0.68;;;;;;;11.90;57.25;96134.53;4986325;28;20072;-77
2021/10/21 06:09:52;;;;;;;3.55;0.77;;;;;;;11.90;56.73;96148.09;4984878;28;20531;-76
2021/10/21 06:12:20;;;;;;;3.05;0.55;;;;;;;11.95;55.85;96153.44;4983724;28;20034;-77
2021/10/21 06:14:45;;;;;;;6.00;1.08;;;;;;;11.96;55.08;96180.28;4984097;28;20113;-76
2021/10/21 06:17:10;;;;;;;4.30;0.70;;;;;;;12.05;54.95;96183.16;4967940;28;20036;-78
2021/10/21 06:19:36;;;;;;;6.63;1.20;;;;;;;12.00;55.19;96166.94;4984652;28;20087;-77
2021/10/21 06:22:07;;;;;;;8.18;0.95;;;;;;;12.00;55.21;96191.34;4984404;28;20419;-76
2021/10/21 06:24:33;;;;;;;;;;;;;;;11.87;55.93;96171.16;5003020;28;20038;-78
2021/10/21 06:26:58;;;;;;;3.13;0.57;;;;;;;11.91;55.40;96179.53;5003025;28;19919;-78
2021/10/21 06:29:23;;;;;;;3.95;0.63;;;;;;;11.87;55.56;96184.72;4990570;28;20108;-78
2021/10/21 06:31:49;;;;;;;4.05;0.75;;;;;;;11.83;54.99;96187.22;4987010;28;20038;-77
2021/10/21 06:34:15;;;;;;;3.45;0.95;;;;;;;11.93;54.17;96185.47;4984401;28;20464;-77
2021/10/21 06:36:41;;;;;;;2.72;0.60;;;;;;;11.99;54.36;96207.91;4987300;28;20081;-77
2021/10/21 06:39:06;;;;;;;4.55;0.77;;;;;;;11.89;54.85;96217.78;4976085;23;20042;-77
2021/10/21 06:41:31;;;;;;;3.53;0.73;;;;;;;11.88;54.97;96224.31;4977536;28;20026;-77
2021/10/21 06:43:57;;;;;;;4.50;0.80;;;;;;;12.02;53.77;96207.34;4978396;28;20058;-78
2021/10/21 06:46:23;;;;;;;3.78;0.70;;;;;;;11.97;54.94;96211.72;4968266;28;20038;-77
2021/10/21 06:48:48;;;;;;;4.10;0.55;;;;;;;12.05;54.51;96255.59;4980381;28;20035;-77
2021/10/21 06:51:14;;;;;;;3.28;0.65;;;;;;;12.07;54.55;96234.44;4976731;28;20077;-77
2021/10/21 06:53:39;;;;;;;6.97;1.15;;;;;;;12.14;54.73;96243.03;4980703;28;20121;-77
2021/10/21 06:56:05;;;;;;;2.42;0.30;;;;;;;12.20;54.12;96252.72;4975881;28;20034;-77
2021/10/21 06:58:31;;;;;;;2.20;0.40;;;;;;;12.27;53.41;96268.66;4952547;28;20030;-77
2021/10/21 07:00:56;;;;;;;3.05;0.28;;;;;;;12.28;53.81;96254.00;4966022;28;20053;-77
2021/10/21 07:03:22;;;;;;;4.78;0.95;;;;;;;12.30;53.06;96316.94;4980105;28;20544;-77
2021/10/21 07:05:48;;;;;;;1.40;0.45;;;;;;;12.21;53.49;96283.41;4989023;28;20037;-76
2021/10/21 07:08:13;;;;;;;1.02;0.38;;;;;;;12.28;53.49;96302.84;4977610;28;20026;-78
2021/10/21 07:10:40;;;;;;;0.90;0.20;;;;;;;12.33;52.40;96300.06;4993610;28;19922;-77
2021/10/21 07:13:05;;;;;;;5.43;0.52;;;;;;;12.39;52.40;96340.72;4983103;28;20030;-78
2021/10/21 07:15:32;;;;;;;1.08;0.13;;;;;;;12.36;52.29;96334.75;4965788;28;20033;-77
2021/10/21 07:17:58;;;;;;;5.82;0.60;;;;;;;12.34;52.22;96338.88;4978896;28;20427;-77
2021/10/21 07:20:23;;;;;;;0.85;0.30;;;;;;;12.27;52.86;96368.28;4965490;28;20514;-77
2021/10/21 07:22:49;;;;;;;1.55;0.28;;;;;;;12.21;53.02;96371.03;4970380;28;20034;-77
2021/10/21 07:25:14;;;;;;;2.58;0.40;;;;;;;12.21;53.30;96362.88;4990200;28;20022;-78
2021/10/21 07:27:41;;;;;;;3.22;0.28;;;;;;;12.22;53.00;96382.69;4988097;28;20030;-78
2021/10/21 07:30:07;;;;;;;3.17;0.52;;;;;;;12.22;53.62;96388.13;4997090;28;20033;-78
2021/10/21 07:32:32;;;;;;;4.53;0.80;;;;;;;12.15;53.15;96402.03;4979322;28;20026;-74
2021/10/21 07:34:58;;;;;;;3.63;0.40;;;;;;;12.12;53.58;96396.38;4984257;28;20022;-74
2021/10/21 07:37:23;;;;;;;2.63;0.40;;;;;;;12.03;53.75;96393.44;4965968;28;20030;-74
2021/10/21 07:39:48;;;;;;;0.80;0.20;;;;;;;12.04;53.51;96400.47;4987138;28;20040;-74
2021/10/21 07:42:14;;;;;;;1.90;0.47;;;;;;;11.96;54.27;96437.16;4968623;28;20076;-73
2021/10/21 07:44:40;;;;;;;4.43;0.47;;;;;;;11.93;54.71;96440.44;4995412;28;20499;-73
2021/10/21 07:47:06;;;;;;;1.45;0.28;;;;;;;11.90;55.06;96458.09;4967459;28;20039;-74
2021/10/21 07:49:31;;;;;;;5.60;0.70;;;;;;;12.04;54.51;96446.59;4964423;28;20035;-75
2021/10/21 07:51:57;;;;;;;3.90;0.28;;;;;;;12.00;54.40;96459.94;4968931;28;20037;-75
2021/10/21 07:54:29;;;;;;;1.50;0.20;;;;;;;12.10;55.16;96459.88;4982131;28;20270;-74
2021/10/21 07:56:55;;;;;;;1.88;0.20;;;;;;;12.18;55.63;96511.91;4971043;28;20557;-74
2021/10/21 07:59:22;;;;;;;3.00;0.50;;;;;;;12.31;54.81;96484.13;4970271;28;20034;-74
2021/10/21 08:01:47;;;;;;;3.80;0.30;;;;;;;12.52;54.87;96474.97;4971999;28;20455;-75
2021/10/21 08:04:14;;;;;;;1.55;0.20;;;;;;;12.42;56.52;96524.75;4970588;28;20041;-75
2021/10/21 08:06:43;;;;;;;6.75;2.10;;;;;;;11.84;58.44;96546.84;4987132;28;20262;-74
2021/10/21 08:09:09;;;;;;;3.30;0.70;;;;;;;11.54;59.37;96520.72;4976551;28;20037;-75
2021/10/21 08:11:34;;;;;;;2.17;0.57;;;;;;;11.42;60.29;96531.88;4966675;28;20042;-74
2021/10/21 08:14:00;;;;;;;4.03;1.17;;;;;;;11.62;60.23;96581.66;4977310;28;20101;-74
2021/10/21 08:16:26;;;;;;;2.35;0.50;;;;;;;11.47;60.77;96550.84;4983460;28;20030;-74
2021/10/21 08:18:52;;;;;;;3.20;0.73;;;;;;;11.33;60.91;96558.75;4995370;28;20071;-74
2021/10/21 08:21:17;;;;;;;1.27;0.40;;;;;;;11.32;61.60;96565.25;4971279;28;20041;-74
2021/10/21 08:23:42;;;;;;;1.33;0.20;;;;;;;11.32;63.25;96563.34;4983400;28;20476;-75
2021/10/21 08:26:08;;;;;;;0.73;0.22;;;;;;;11.27;63.24;96554.41;4987354;28;20036;-74
2021/10/21 08:28:33;;;;;;;0.52;0.20;;;;;;;11.47;65.15;96583.38;4969846;28;20065;-74
2021/10/21 08:30:59;;;;;;;2.38;0.47;;;;;;;11.24;66.32;96591.00;4983525;28;20411;-74
2021/10/21 08:33:24;;;;;;;2.30;0.38;;;;;;;10.86;69.58;96593.25;4983046;28;20404;-74
2021/10/21 08:35:50;;;;;;;3.08;0.73;;;;;;;10.82;70.15;96593.00;4996911;28;20065;-74
2021/10/21 08:38:15;;;;;;;1.48;0.50;;;;;;;10.60;70.51;96620.34;4983539;28;20136;-74
2021/10/21 08:40:41;;;;;;;1.75;0.32;;;;;;;10.13;73.63;96601.34;4963259;28;20027;-74
2021/10/21 08:43:07;;;;;;;0.93;0.63;;;;;;;10.82;71.85;96624.69;4977013;28;20034;-75
2021/10/21 08:45:33;;;;;;;1.75;0.30;;;;;;;10.78;69.80;96649.63;4978800;28;20058;-74
2021/10/21 08:48:02;;;;;;;1.02;0.25;;;;;;;10.50;69.87;96659.06;4973311;28;20030;-74
2021/10/21 08:50:29;;;;;;;0.70;0.13;;;;;;;10.52;70.46;96649.59;4995799;28;20516;-74
2021/10/21 08:52:54;;;;;;;0.82;0.22;;;;;;;10.83;68.74;96639.88;4995323;28;20051;-74
2021/10/21 08:55:20;;;;;;;4.68;1.67;;;;;;;11.53;67.01;96676.31;4981815;28;20034;-74
2021/10/21 08:57:45;;;;;;;2.92;0.40;;;;;;;12.00;64.85;96676.16;4982566;28;20026;-75
2021/10/21 09:00:13;;;;;;;0.85;0.22;;;;;;;11.99;63.08;96675.34;4963867;28;20027;-74
2021/10/21 09:02:57;;;;;;;0.60;0.30;;;;;;;12.25;62.11;96715.97;4975797;28;20026;-74
2021/10/21 09:05:47;;;;;;;2.42;0.32;;;;;;;11.79;63.17;96693.31;4970844;28;20105;-74
2021/10/21 09:08:14;;;;;;;0.45;0.15;;;;;;;12.66;60.08;96749.41;4964383;28;20038;-74
2021/10/21 09:10:48;;;;;;;0.38;0.10;;;;;;;11.84;62.72;96735.91;4963707;28;20492;-74
2021/10/21 09:13:30;;;;;;;2.03;0.20;;;;;;;11.17;62.37;96732.19;4981470;28;20503;-74
2021/10/21 09:15:59;;;;;;;0.35;0.15;;;;;;;11.11;62.07;96741.44;5011317;28;20068;-74
2021/10/21 09:18:42;;;;;;;1.42;0.63;;;;;;;11.13;62.38;96747.38;4967470;28;20108;-74
2021/10/21 09:21:07;;;;;;;1.98;0.32;;;;;;;11.38;61.96;96751.16;4972056;28;20034;-75
2021/10/21 09:23:33;;;;;;;0.93;0.30;;;;;;;11.19;62.26;96797.78;5001616;28;20037;-74
2021/10/21 09:26:09;;;;;;;1.63;0.73;;;;;;;11.04;62.49;96800.47;4989826;28;20098;-75
2021/10/21 09:28:35;;;;;;;1.50;0.25;;;;;;;10.70;63.29;96792.84;4961819;28;20125;-75
2021/10/21 09:31:08;;;;;;;0.60;0.30;;;;;;;10.59;63.82;96811.75;4984960;28;20026;-74
2021/10/21 09:33:49;;;;;;;0.25;0.20;;;;;;;10.24;65.61;96808.63;4985454;28;20034;-74
2021/10/21 09:36:24;;;;;;;0.10;0.10;;;;;;;10.24;65.86;96816.72;4974705;28;20030;-74
2021/10/21 09:38:57;;;;;;;0.57;0.10;;;;;;;10.64;64.34;96833.44;4969152;28;20551;-74
2021/10/21 09:41:34;;;;;;;2.83;0.20;;;;;;;10.63;62.42;96849.94;4967221;28;20060;-75
2021/10/21 09:43:59;;;;;;;1.45;0.38;;;;;;;10.75;62.29;96847.00;4978087;28;20597;-75
2021/10/21 09:46:43;;;;;;;1.60;0.40;;;;;;;10.63;62.04;96852.66;4976356;28;20026;-75
2021/10/21 09:49:35;;;;;;;1.48;0.20;;;;;;;11.32;60.07;96864.19;4974563;28;20081;-74
2021/10/21 09:52:03;;;;;;;0.90;0.40;;;;;;;11.28;58.60;96871.22;4982889;28;20054;-74
2021/10/21 09:54:30;;;;;;;1.65;0.60;;;;;;;11.77;58.26;96869.09;4985105;28;20093;-74
2021/10/21 09:57:04;;;;;;;0.73;0.17;;;;;;;12.01;56.85;96903.00;4981984;28;20030;-75
2021/10/21 09:59:37;;;;;;;1.85;0.32;;;;;;;12.09;56.45;96878.03;4981538;28;20030;-75
2021/10/21 10:02:21;;;;;;;1.65;0.43;;;;;;;12.10;57.21;96876.94;4981290;28;20053;-74
2021/10/21 10:04:49;;;;;;;2.72;0.60;;;;;;;13.63;51.46;96891.22;4979605;28;20105;-74
2021/10/21 10:07:15;;;;;;;3.70;0.47;;;;;;;15.27;47.63;96892.78;4998442;28;20034;-74
2021/10/21 10:09:40;;;;;;;1.83;0.40;;;;;;;16.97;43.10;96890.13;4980538;28;20027;-74
2021/10/21 10:12:07;;;;;;;1.23;0.50;;;;;;;17.08;42.50;96897.03;4986428;28;20037;-74
2021/10/21 10:14:37;;;;;;;0.57;0.25;;;;;;;16.82;42.36;96894.81;4968880;28;20035;-74
2021/10/21 10:17:02;;;;;;;2.13;0.40;;;;;;;17.84;39.68;96889.28;4985072;28;20036;-75
2021/10/21 10:19:29;;;;;;;2.65;0.55;;;;;;;18.74;38.95;96905.91;4980996;28;20532;-74
2021/10/21 10:21:56;;;;;;;1.25;0.30;;;;;;;19.02;38.91;96902.91;4985084;28;20037;-75
2021/10/21 10:24:29;;;;;;;2.13;0.40;;;;;;;19.65;37.37;96906.59;4969062;28;20030;-75
2021/10/21 10:26:57;;;;;;;2.22;0.30;;;;;;;19.66;38.25;96902.69;4981842;28;20034;-75
2021/10/21 10:29:32;;;;;;;0.60;0.10;;;;;;;16.15;42.66;96912.44;4975515;28;20061;-75
2021/10/21 10:32:02;;;;;;;2.30;0.40;;;;;;;17.49;40.40;96910.91;4975998;28;20034;-74
2021/10/21 10:34:34;;;;;;;2.93;0.70;;;;;;;15.08;45.79;96904.50;4992022;28;20019;-73
2021/10/21 10:37:12;;;;;;;1.95;0.38;;;;;;;14.17;47.94;96934.06;4983489;28;20034;-73
2021/10/21 10:39:56;;;;;;;3.45;0.77;;;;;;;12.67;51.77;96913.97;4966093;28;20401;-74
2021/10/21 10:42:45;;;;;;;3.17;0.98;;;;;;;13.19;50.56;96914.56;4982190;28;20050;-74
2021/10/21 10:45:12;;;;;;;2.17;0.32;;;;;;;12.54;52.81;96924.38;4980586;28;20081;-75
2021/10/21 10:47:37;;;;;;;1.23;0.40;;;;;;;12.88;52.45;96921.00;4981327;28;20019;-75
2021/10/21 10:50:09;;;;;;;1.33;0.30;;;;;;;13.26;51.74;96928.69;4998444;28;20538;-75
2021/10/21 10:52:54;;;;;;;1.08;0.20;;;;;;;13.14;51.80;96920.88;4994268;28;20037;-75
2021/10/21 10:55:36;;;;;;;4.22;0.50;;;;;;;13.68;51.08;96922.19;4975695;28;20030;-75
2021/10/21 10:58:03;;;;;;;2.25;0.50;;;;;;;13.31;50.94;96921.59;4979537;28;20514;-75
2021/10/21 11:00:52;;;;;;;2.42;0.40;;;;;;;13.47;50.26;96916.88;4964798;28;20399;-76
2021/10/21 11:03:30;;;;;;;4.65;2.20;;;;;;;12.83;50.28;96926.44;4996679;28;20034;-75
2021/10/21 11:05:57;;;;;;;0.93;0.40;;;;;;;13.23;49.48;96910.22;4991563;28;20597;-75
2021/10/21 11:08:53;;;;;;;2.75;0.45;;;;;;;13.75;48.67;96917.25;4969825;28;20332;-76
2021/10/21 11:11:37;;;;;;;2.40;0.32;;;;;;;13.99;47.32;96927.41;4964501;28;20111;-75
2021/10/21 11:14:12;;;;;;;3.45;0.65;;;;;;;13.17;47.66;96933.09;4980628;28;20508;-75
2021/10/21 11:16:47;;;;;;;2.47;0.43;;;;;;;13.19;48.37;96921.94;4983587;28;20042;-75
2021/10/21 11:19:42;;;;;;;4.28;0.88;;;;;;;13.34;49.51;96940.88;4975980;28;20018;-76
2021/10/21 11:22:12;;;;;;;4.03;0.50;;;;;;;13.75;49.16;96934.38;4977996;28;20032;-76
2021/10/21 11:24:43;;;;;;;1.52;0.43;;;;;;;13.85;46.97;96924.50;4975203;28;20026;-76
2021/10/21 11:27:09;;;;;;;4.45;1.50;;;;;;;13.08;48.52;96926.63;4990187;28;20491;-76
2021/10/21 11:29:35;;;;;;;1.73;0.15;;;;;;;12.83;49.40;96929.13;4984270;28;20038;-76
2021/10/21 11:32:04;;;;;;;1.65;0.43;;;;;;;13.40;47.24;96923.44;4983850;28;20018;-76
2021/10/21 11:34:30;;;;;;;0.47;0.35;;;;;;;13.17;47.30;96926.81;4984604;28;20070;-76